Terminal Aerodrome Forecast
Issued by NWS

Home | Current Version | Previous Version | Text Only | Print | Product List | Glossary On
Versions: 1 2 3 4 5 6 7 8 9 10 11 12 13 14 15 16 17 18 19
000
FTUS41 KBTV 022300
TAFRUT
TAF
KRUT 022323Z 0300/0324 16005KT P6SM VCSH SCT025 BKN040
     FM030100 14004KT 6SM RA BR VCTS OVC040CB
     FM030600 VRB03KT 5SM BR SCT003 BKN015
     FM031200 28008KT P6SM BKN050
     FM031600 29009G16KT P6SM SCT050
      AMD LTD TO CLD VIS AND WIND=

USA.gov is the U.S. government's official web portal to all federal, state and local government web resources and services.